sensor_id;sensor_type;location;lat;lon;timestamp;pressure;altitude;pressure_sealevel;temperature;humidity
54546;BME280;40444;45.184;9.850;2023-01-25T00:02:16;102231.78;;;5.96;100.00
54546;BME280;40444;45.184;9.850;2023-01-25T00:04:44;102235.38;;;5.95;100.00
54546;BME280;40444;45.184;9.850;2023-01-25T00:07:13;102232.34;;;5.82;100.00
54546;BME280;40444;45.184;9.850;2023-01-25T00:09:42;102237.78;;;5.79;100.00
54546;BME280;40444;45.184;9.850;2023-01-25T00:12:10;102232.16;;;5.87;100.00
54546;BME280;40444;45.184;9.850;2023-01-25T00:14:39;102227.13;;;5.80;100.00
54546;BME280;40444;45.184;9.850;2023-01-25T00:17:08;102209.19;;;5.84;100.00
54546;BME280;40444;45.184;9.850;2023-01-25T00:19:36;102231.34;;;5.84;100.00
54546;BME280;40444;45.184;9.850;2023-01-25T00:22:05;102219.78;;;5.86;100.00
54546;BME280;40444;45.184;9.850;2023-01-25T00:24:33;102217.06;;;5.87;100.00
54546;BME280;40444;45.184;9.850;2023-01-25T00:27:02;102223.31;;;5.86;100.00
54546;BME280;40444;45.184;9.850;2023-01-25T00:29:31;102226.84;;;5.87;100.00
54546;BME280;40444;45.184;9.850;2023-01-25T00:34:38;102212.59;;;5.88;100.00
54546;BME280;40444;45.184;9.850;2023-01-25T00:37:13;102211.66;;;5.89;100.00
54546;BME280;40444;45.184;9.850;2023-01-25T00:39:46;102220.50;;;5.89;100.00
54546;BME280;40444;45.184;9.850;2023-01-25T00:42:16;102217.84;;;5.89;100.00
54546;BME280;40444;45.184;9.850;2023-01-25T00:44:46;102216.13;;;5.88;100.00
54546;BME280;40444;45.184;9.850;2023-01-25T00:47:15;102214.31;;;5.89;100.00
54546;BME280;40444;45.184;9.850;2023-01-25T00:49:45;102212.50;;;5.89;100.00
54546;BME280;40444;45.184;9.850;2023-01-25T00:52:14;102212.59;;;5.88;100.00
54546;BME280;40444;45.184;9.850;2023-01-25T00:54:42;102215.34;;;5.86;100.00
54546;BME280;40444;45.184;9.850;2023-01-25T00:57:10;102212.72;;;5.84;100.00
54546;BME280;40444;45.184;9.850;2023-01-25T00:59:38;102211.81;;;5.86;100.00
54546;BME280;40444;45.184;9.850;2023-01-25T01:02:14;102218.84;;;5.87;100.00
54546;BME280;40444;45.184;9.850;2023-01-25T01:04:42;102211.66;;;5.89;100.00
54546;BME280;40444;45.184;9.850;2023-01-25T01:07:13;102204.53;;;5.89;100.00
54546;BME280;40444;45.184;9.850;2023-01-25T01:09:42;102209.16;;;5.86;100.00
54546;BME280;40444;45.184;9.850;2023-01-25T01:12:11;102208.22;;;5.87;100.00
54546;BME280;40444;45.184;9.850;2023-01-25T01:14:40;102205.63;;;5.85;100.00
54546;BME280;40444;45.184;9.850;2023-01-25T01:17:09;102198.56;;;5.84;100.00
54546;BME280;40444;45.184;9.850;2023-01-25T01:19:39;102201.38;;;5.81;100.00
54546;BME280;40444;45.184;9.850;2023-01-25T01:22:07;102197.03;;;5.78;100.00
54546;BME280;40444;45.184;9.850;2023-01-25T01:24:36;102203.22;;;5.79;100.00
54546;BME280;40444;45.184;9.850;2023-01-25T01:27:04;102200.63;;;5.77;100.00
54546;BME280;40444;45.184;9.850;2023-01-25T01:29:33;102213.84;;;5.79;100.00
54546;BME280;40444;45.184;9.850;2023-01-25T01:32:02;102215.59;;;5.80;100.00
54546;BME280;40444;45.184;9.850;2023-01-25T01:34:31;102209.28;;;5.82;100.00
54546;BME280;40444;45.184;9.850;2023-01-25T01:36:59;102210.94;;;5.85;100.00
54546;BME280;40444;45.184;9.850;2023-01-25T01:39:28;102210.00;;;5.86;100.00
54546;BME280;40444;45.184;9.850;2023-01-25T01:41:57;102207.34;;;5.86;100.00
54546;BME280;40444;45.184;9.850;2023-01-25T01:44:43;102205.63;;;5.85;100.00
54546;BME280;40444;45.184;9.850;2023-01-25T01:47:21;102199.50;;;5.83;100.00
54546;BME280;40444;45.184;9.850;2023-01-25T01:50:16;102196.97;;;5.80;100.00
54546;BME280;40444;45.184;9.850;2023-01-25T01:52:46;102182.97;;;5.76;100.00
54546;BME280;40444;45.184;9.850;2023-01-25T01:55:17;102188.41;;;5.73;100.00
54546;BME280;40444;45.184;9.850;2023-01-25T01:57:56;102181.56;;;5.68;100.00
54546;BME280;40444;45.184;9.850;2023-01-25T02:00:29;102188.72;;;5.66;100.00
54546;BME280;40444;45.184;9.850;2023-01-25T02:03:01;102189.75;;;5.63;100.00
54546;BME280;40444;45.184;9.850;2023-01-25T02:05:37;102195.97;;;5.62;100.00
54546;BME280;40444;45.184;9.850;2023-01-25T02:08:11;102193.47;;;5.59;100.00
54546;BME280;40444;45.184;9.850;2023-01-25T02:10:42;102189.88;;;5.60;100.00
54546;BME280;40444;45.184;9.850;2023-01-25T02:13:11;102188.94;;;5.61;100.00
54546;BME280;40444;45.184;9.850;2023-01-25T02:15:51;102185.28;;;5.64;100.00
54546;BME280;40444;45.184;9.850;2023-01-25T02:18:22;102189.88;;;5.60;100.00
54546;BME280;40444;45.184;9.850;2023-01-25T02:20:55;102180.00;;;5.62;100.00
54546;BME280;40444;45.184;9.850;2023-01-25T02:23:57;102164.13;;;5.61;100.00
54546;BME280;40444;45.184;9.850;2023-01-25T02:26:29;102165.69;;;5.46;100.00
54546;BME280;40444;45.184;9.850;2023-01-25T02:29:02;102171.03;;;5.44;100.00
54546;BME280;40444;45.184;9.850;2023-01-25T02:31:31;102164.94;;;5.42;100.00
54546;BME280;40444;45.184;9.850;2023-01-25T02:33:59;102162.34;;;5.41;100.00
54546;BME280;40444;45.184;9.850;2023-01-25T02:36:29;102154.38;;;5.41;100.00
54546;BME280;40444;45.184;9.850;2023-01-25T02:39:03;102159.44;;;5.47;100.00
54546;BME280;40444;45.184;9.850;2023-01-25T02:41:35;102150.47;;;5.49;100.00
54546;BME280;40444;45.184;9.850;2023-01-25T02:44:26;102142.69;;;5.45;100.00
54546;BME280;40444;45.184;9.850;2023-01-25T02:46:57;102143.47;;;5.47;100.00
54546;BME280;40444;45.184;9.850;2023-01-25T02:49:26;102139.88;;;5.48;100.00
54546;BME280;40444;45.184;9.850;2023-01-25T02:51:55;102145.94;;;5.51;100.00
54546;BME280;40444;45.184;9.850;2023-01-25T02:54:24;102146.78;;;5.52;100.00
54546;BME280;40444;45.184;9.850;2023-01-25T02:56:56;102133.28;;;5.56;100.00
54546;BME280;40444;45.184;9.850;2023-01-25T02:59:28;102139.44;;;5.58;100.00
54546;BME280;40444;45.184;9.850;2023-01-25T03:01:59;102142.88;;;5.61;100.00
54546;BME280;40444;45.184;9.850;2023-01-25T03:04:29;102140.22;;;5.61;100.00
54546;BME280;40444;45.184;9.850;2023-01-25T03:06:57;102143.72;;;5.61;100.00
54546;BME280;40444;45.184;9.850;2023-01-25T03:09:27;102146.34;;;5.63;100.00
54546;BME280;40444;45.184;9.850;2023-01-25T03:11:55;102132.16;;;5.62;100.00
54546;BME280;40444;45.184;9.850;2023-01-25T03:14:24;102124.25;;;5.61;100.00
54546;BME280;40444;45.184;9.850;2023-01-25T03:16:53;102130.38;;;5.63;100.00
54546;BME280;40444;45.184;9.850;2023-01-25T03:19:24;102129.56;;;5.61;100.00
54546;BME280;40444;45.184;9.850;2023-01-25T03:21:53;102131.28;;;5.62;100.00
54546;BME280;40444;45.184;9.850;2023-01-25T03:24:22;102126.78;;;5.64;100.00
54546;BME280;40444;45.184;9.850;2023-01-25T03:26:51;102137.25;;;5.67;100.00
54546;BME280;40444;45.184;9.850;2023-01-25T03:29:44;102138.94;;;5.69;100.00
54546;BME280;40444;45.184;9.850;2023-01-25T03:32:17;102137.88;;;5.73;100.00
54546;BME280;40444;45.184;9.850;2023-01-25T03:34:47;102136.84;;;5.76;100.00
54546;BME280;40444;45.184;9.850;2023-01-25T03:37:17;102135.78;;;5.80;100.00
54546;BME280;40444;45.184;9.850;2023-01-25T03:39:48;102125.16;;;5.80;100.00
54546;BME280;40444;45.184;9.850;2023-01-25T03:42:19;102126.81;;;5.82;100.00
54546;BME280;40444;45.184;9.850;2023-01-25T03:44:53;102131.19;;;5.83;100.00
54546;BME280;40444;45.184;9.850;2023-01-25T03:47:22;102125.75;;;5.87;100.00
54546;BME280;40444;45.184;9.850;2023-01-25T03:49:51;102118.72;;;5.86;100.00
54546;BME280;40444;45.184;9.850;2023-01-25T03:55:39;102105.41;;;5.86;100.00
54546;BME280;40444;45.184;9.850;2023-01-25T03:58:09;102111.59;;;5.86;100.00
54546;BME280;40444;45.184;9.850;2023-01-25T04:00:38;102111.28;;;5.73;100.00
54546;BME280;40444;45.184;9.850;2023-01-25T04:03:07;102100.84;;;5.69;100.00
54546;BME280;40444;45.184;9.850;2023-01-25T04:05:35;102100.03;;;5.67;100.00
54546;BME280;40444;45.184;9.850;2023-01-25T04:08:04;102103.72;;;5.64;100.00
54546;BME280;40444;45.184;9.850;2023-01-25T04:10:38;102105.44;;;5.65;100.00
54546;BME280;40444;45.184;9.850;2023-01-25T04:13:08;102102.78;;;5.65;100.00
54546;BME280;40444;45.184;9.850;2023-01-25T04:15:36;102105.44;;;5.65;100.00
54546;BME280;40444;45.184;9.850;2023-01-25T04:18:13;102101.06;;;5.64;100.00
54546;BME280;40444;45.184;9.850;2023-01-25T04:20:41;102096.59;;;5.65;100.00
54546;BME280;40444;45.184;9.850;2023-01-25T04:23:11;102102.91;;;5.62;100.00
54546;BME280;40444;45.184;9.850;2023-01-25T04:25:41;102097.75;;;5.59;100.00
54546;BME280;40444;45.184;9.850;2023-01-25T04:28:13;102091.50;;;5.60;100.00
54546;BME280;40444;45.184;9.850;2023-01-25T04:30:42;102092.56;;;5.56;100.00
54546;BME280;40444;45.184;9.850;2023-01-25T04:33:11;102096.28;;;5.52;100.00
54546;BME280;40444;45.184;9.850;2023-01-25T04:35:40;102083.47;;;5.41;100.00
54546;BME280;40444;45.184;9.850;2023-01-25T04:38:09;102084.88;;;5.50;100.00
54546;BME280;40444;45.184;9.850;2023-01-25T04:40:41;102077.78;;;5.49;100.00
54546;BME280;40444;45.184;9.850;2023-01-25T04:43:15;102079.53;;;5.50;100.00
54546;BME280;40444;45.184;9.850;2023-01-25T04:45:44;102069.44;;;5.38;100.00
54546;BME280;40444;45.184;9.850;2023-01-25T04:48:21;102073.03;;;5.37;100.00
54546;BME280;40444;45.184;9.850;2023-01-25T04:50:55;102074.69;;;5.39;100.00
54546;BME280;40444;45.184;9.850;2023-01-25T04:53:24;102074.69;;;5.39;100.00
54546;BME280;40444;45.184;9.850;2023-01-25T04:55:54;102066.06;;;5.34;100.00
54546;BME280;40444;45.184;9.850;2023-01-25T04:58:24;102064.41;;;5.31;100.00
54546;BME280;40444;45.184;9.850;2023-01-25T05:00:53;102066.91;;;5.35;100.00
54546;BME280;40444;45.184;9.850;2023-01-25T05:03:22;102065.06;;;5.37;100.00
54546;BME280;40444;45.184;9.850;2023-01-25T05:05:53;102069.56;;;5.35;100.00
54546;BME280;40444;45.184;9.850;2023-01-25T05:08:24;102061.06;;;5.26;100.00
54546;BME280;40444;45.184;9.850;2023-01-25T05:11:00;102065.53;;;5.26;100.00
54546;BME280;40444;45.184;9.850;2023-01-25T05:13:44;102061.63;;;5.14;100.00
54546;BME280;40444;45.184;9.850;2023-01-25T05:16:18;102068.75;;;5.14;100.00
54546;BME280;40444;45.184;9.850;2023-01-25T05:18:47;102061.19;;;5.04;100.00
54546;BME280;40444;45.184;9.850;2023-01-25T05:21:21;102068.22;;;5.05;100.00
54546;BME280;40444;45.184;9.850;2023-01-25T05:24:12;102063.63;;;5.09;100.00
54546;BME280;40444;45.184;9.850;2023-01-25T05:26:42;102061.84;;;5.10;100.00
54546;BME280;40444;45.184;9.850;2023-01-25T05:29:41;102061.19;;;5.04;100.00
